createdAt,value
2023-01-05T00:01:14.593Z,87.49
2023-01-05T00:03:41.503Z,87.10
2023-01-05T00:06:11.276Z,87.34
2023-01-05T00:08:38.262Z,87.27
2023-01-05T00:11:25.265Z,86.76
2023-01-05T00:14:10.713Z,87.34
2023-01-05T00:16:56.285Z,88.58
2023-01-05T00:19:41.806Z,87.90
2023-01-05T00:22:31.365Z,87.17
2023-01-05T00:25:12.254Z,88.35
2023-01-05T00:27:43.551Z,86.56
2023-01-05T00:30:13.553Z,86.90
2023-01-05T00:32:42.207Z,87.37
2023-01-05T00:35:10.072Z,86.84
2023-01-05T00:37:40.790Z,86.29
2023-01-05T00:40:12.791Z,86.32
2023-01-05T00:42:39.766Z,86.07
2023-01-05T00:45:07.816Z,85.42
2023-01-05T00:47:34.689Z,86.36
2023-01-05T00:50:01.467Z,85.85
2023-01-05T00:52:28.160Z,85.67
2023-01-05T00:54:54.961Z,86.02
2023-01-05T00:57:21.851Z,86.08
2023-01-05T00:59:48.676Z,85.66
2023-01-05T01:02:15.925Z,84.36
2023-01-05T01:04:42.931Z,83.81
2023-01-05T01:07:09.733Z,84.74
2023-01-05T01:09:37.477Z,84.67
2023-01-05T01:12:04.440Z,84.78
2023-01-05T01:14:31.264Z,84.04
2023-01-05T01:16:58.169Z,83.77
2023-01-05T01:19:27.426Z,84.73
2023-01-05T01:21:54.614Z,84.00
2023-01-05T01:24:24.077Z,84.40
2023-01-05T01:26:50.924Z,84.20
2023-01-05T01:29:17.678Z,83.58
2023-01-05T01:31:45.747Z,83.62
2023-01-05T01:34:12.985Z,83.39
2023-01-05T01:36:40.738Z,83.66
2023-01-05T01:39:08.010Z,84.07
2023-01-05T01:41:37.232Z,82.50
2023-01-05T01:44:42.576Z,81.46
2023-01-05T01:47:16.679Z,81.24
2023-01-05T01:49:43.480Z,82.45
2023-01-05T01:52:10.225Z,81.75
2023-01-05T01:54:37.129Z,82.46
2023-01-05T01:57:05.349Z,81.62
2023-01-05T01:59:32.208Z,81.54
2023-01-05T02:02:01.110Z,81.04
2023-01-05T02:04:30.962Z,81.48
2023-01-05T02:06:58.227Z,81.34
2023-01-05T02:09:25.016Z,81.23
2023-01-05T02:12:06.549Z,81.01
2023-01-05T02:14:42.287Z,81.30
2023-01-05T02:17:27.591Z,80.75
2023-01-05T02:20:22.464Z,80.84
2023-01-05T02:23:11.667Z,80.30
2023-01-05T02:26:16.153Z,80.25
2023-01-05T02:29:09.019Z,79.66
2023-01-05T02:31:40.277Z,80.29
2023-01-05T02:34:14.956Z,80.93
2023-01-05T02:37:18.684Z,79.23
2023-01-05T02:39:57.909Z,80.93
2023-01-05T02:42:25.507Z,78.80
2023-01-05T02:44:52.560Z,78.05
2023-01-05T02:47:27.660Z,78.48
2023-01-05T02:50:01.699Z,78.83
2023-01-05T02:52:38.444Z,78.51
2023-01-05T02:55:08.170Z,79.80
2023-01-05T02:57:50.990Z,78.35
2023-01-05T03:00:27.551Z,79.92
2023-01-05T03:03:03.166Z,79.83
2023-01-05T03:05:39.620Z,78.52
2023-01-05T03:08:07.146Z,79.69
2023-01-05T03:11:06.236Z,78.30
2023-01-05T03:13:44.124Z,78.90
2023-01-05T03:16:21.657Z,78.72
2023-01-05T03:19:10.245Z,78.17
2023-01-05T03:21:55.589Z,76.99
2023-01-05T03:24:42.055Z,79.16
2023-01-05T03:27:30.074Z,78.03
2023-01-05T03:30:18.403Z,77.25
2023-01-05T03:33:14.777Z,77.33
2023-01-05T03:35:43.007Z,77.31
2023-01-05T03:38:30.995Z,77.27
2023-01-05T03:41:01.456Z,76.58
2023-01-05T03:43:28.983Z,77.31
2023-01-05T03:45:57.983Z,77.12
2023-01-05T03:48:28.748Z,76.44
2023-01-05T03:50:55.679Z,76.42
2023-01-05T03:53:24.394Z,76.01
2023-01-05T03:55:51.106Z,76.86
2023-01-05T03:58:18.028Z,76.07
2023-01-05T04:00:47.855Z,75.91
2023-01-05T04:03:17.101Z,76.69
2023-01-05T04:05:43.825Z,76.77
2023-01-05T04:08:11.402Z,77.52
2023-01-05T04:10:38.562Z,78.00
2023-01-05T04:13:05.312Z,78.51
2023-01-05T04:15:33.216Z,78.08
2023-01-05T04:18:02.297Z,78.42
2023-01-05T04:20:29.173Z,79.49
2023-01-05T04:22:55.906Z,79.35
2023-01-05T04:25:23.504Z,80.44
2023-01-05T04:27:50.255Z,80.58
2023-01-05T04:30:18.615Z,79.56
2023-01-05T04:32:46.831Z,79.55
2023-01-05T04:35:15.529Z,80.48
2023-01-05T04:37:43.701Z,82.96
2023-01-05T04:40:11.160Z,84.13
2023-01-05T04:42:53.279Z,85.42
2023-01-05T04:45:19.989Z,86.80
2023-01-05T04:47:48.028Z,88.00
2023-01-05T04:50:18.969Z,87.26
2023-01-05T04:52:45.839Z,87.04
2023-01-05T04:55:13.409Z,87.96
2023-01-05T04:57:41.020Z,88.25
2023-01-05T05:00:12.091Z,87.41
2023-01-05T05:02:39.009Z,86.63
2023-01-05T05:05:09.797Z,87.54
2023-01-05T05:07:38.571Z,87.95
2023-01-05T05:10:06.096Z,88.90
2023-01-05T05:12:33.393Z,88.49
2023-01-05T05:15:00.212Z,89.34
2023-01-05T05:17:28.480Z,88.26
2023-01-05T05:19:55.519Z,88.56
2023-01-05T05:22:22.493Z,87.69
2023-01-05T05:24:49.329Z,86.69
2023-01-05T05:27:16.073Z,86.61
2023-01-05T05:29:42.789Z,86.11
2023-01-05T05:32:09.521Z,86.78
2023-01-05T05:34:36.395Z,86.71
2023-01-05T05:37:03.069Z,86.80
2023-01-05T05:39:29.812Z,88.26
2023-01-05T05:41:56.559Z,87.37
2023-01-05T05:44:23.223Z,87.13
2023-01-05T05:46:50.009Z,88.14
2023-01-05T05:49:16.850Z,88.36
2023-01-05T05:51:43.561Z,88.22
2023-01-05T05:54:10.299Z,87.15
2023-01-05T05:56:37.004Z,86.77
2023-01-05T05:59:03.685Z,87.84
2023-01-05T06:01:30.554Z,86.61
2023-01-05T06:03:57.459Z,87.76
2023-01-05T06:06:24.191Z,87.09
2023-01-05T06:08:50.916Z,87.39
2023-01-05T06:11:17.730Z,86.45
2023-01-05T06:13:44.539Z,86.87
2023-01-05T06:16:11.829Z,87.04
2023-01-05T06:18:38.526Z,87.16
2023-01-05T06:21:05.370Z,87.12
2023-01-05T06:23:32.100Z,88.78
2023-01-05T06:25:59.032Z,89.06
2023-01-05T06:28:25.759Z,87.63
2023-01-05T06:30:52.469Z,87.62
2023-01-05T06:33:19.340Z,87.51
2023-01-05T06:35:46.112Z,88.97
2023-01-05T06:38:13.790Z,88.75
2023-01-05T06:40:44.477Z,87.69
2023-01-05T06:43:12.231Z,88.81
2023-01-05T06:45:39.250Z,89.09
2023-01-05T06:48:06.341Z,89.09
2023-01-05T06:50:33.262Z,88.96
2023-01-05T06:53:00.149Z,88.88
2023-01-05T06:55:27.275Z,88.82
2023-01-05T06:58:00.270Z,89.03
2023-01-05T07:00:27.773Z,88.78
2023-01-05T07:02:54.599Z,88.23
2023-01-05T07:05:23.393Z,87.91
2023-01-05T07:07:50.981Z,88.79
2023-01-05T07:10:17.782Z,89.98
2023-01-05T07:12:44.517Z,89.68
2023-01-05T07:15:11.500Z,89.91
2023-01-05T07:17:38.263Z,89.57
2023-01-05T07:20:06.143Z,88.34
2023-01-05T07:22:32.920Z,87.37
2023-01-05T07:25:00.184Z,88.01
2023-01-05T07:27:27.424Z,89.33
2023-01-05T07:29:54.166Z,87.01
2023-01-05T07:32:20.858Z,86.94
2023-01-05T07:34:55.485Z,87.15
2023-01-05T07:37:25.089Z,86.83
2023-01-05T07:39:52.255Z,87.53
2023-01-05T07:42:19.014Z,86.86
2023-01-05T07:44:47.801Z,87.94
2023-01-05T07:47:20.248Z,87.00
2023-01-05T07:49:48.629Z,86.86
2023-01-05T07:52:15.349Z,86.44
2023-01-05T07:54:42.123Z,85.20
2023-01-05T07:57:08.968Z,86.40
2023-01-05T07:59:35.780Z,85.53
2023-01-05T08:02:03.827Z,84.89
2023-01-05T08:04:30.824Z,85.50
2023-01-05T08:06:57.697Z,86.23
2023-01-05T08:09:42.877Z,86.54
2023-01-05T08:12:09.789Z,86.23
2023-01-05T08:14:36.561Z,86.35
2023-01-05T08:17:03.343Z,86.18
2023-01-05T08:19:30.093Z,84.98
2023-01-05T08:21:56.959Z,85.67
2023-01-05T08:24:23.733Z,85.39
2023-01-05T08:26:51.159Z,85.21
2023-01-05T08:29:18.148Z,84.97
2023-01-05T08:31:44.862Z,85.27
2023-01-05T08:34:11.797Z,82.84
2023-01-05T08:36:38.780Z,83.77
2023-01-05T08:39:06.439Z,82.05
2023-01-05T08:41:37.519Z,82.95
2023-01-05T08:44:07.031Z,82.80
2023-01-05T08:46:35.373Z,82.32
2023-01-05T08:49:03.818Z,81.91
2023-01-05T08:51:31.133Z,82.56
2023-01-05T08:53:58.392Z,81.88
2023-01-05T08:56:28.127Z,80.74
2023-01-05T08:58:59.201Z,81.53
2023-01-05T09:01:26.060Z,81.31
2023-01-05T09:03:52.938Z,81.86
2023-01-05T09:06:19.687Z,80.74
2023-01-05T09:08:46.802Z,82.09
2023-01-05T09:11:22.294Z,80.29
2023-01-05T09:13:54.804Z,79.39
2023-01-05T09:16:49.443Z,77.18
2023-01-05T09:19:10.918Z,76.62
2023-01-05T09:21:39.857Z,77.26
2023-01-05T09:24:12.990Z,76.80
2023-01-05T09:26:40.969Z,74.93
2023-01-05T09:29:07.836Z,74.89
2023-01-05T09:31:34.719Z,74.04
2023-01-05T09:34:01.612Z,75.63
2023-01-05T09:36:28.424Z,72.86
2023-01-05T09:38:56.939Z,73.33
2023-01-05T09:41:27.388Z,73.65
2023-01-05T09:43:59.473Z,72.75
2023-01-05T09:46:37.932Z,72.28
2023-01-05T09:49:07.014Z,72.60
2023-01-05T09:51:34.367Z,72.31
2023-01-05T09:54:01.673Z,71.89
2023-01-05T09:59:29.820Z,71.84
2023-01-05T10:02:00.708Z,72.19
2023-01-05T10:04:30.981Z,72.95
2023-01-05T10:07:02.996Z,73.55
2023-01-05T10:09:33.861Z,73.10
2023-01-05T10:12:28.501Z,71.46
2023-01-05T10:15:02.264Z,72.05
2023-01-05T10:17:42.852Z,70.68
2023-01-05T10:20:17.679Z,72.11
2023-01-05T10:22:55.506Z,72.53
2023-01-05T10:25:29.675Z,71.95
2023-01-05T10:28:24.060Z,71.07
2023-01-05T10:31:14.470Z,72.42
2023-01-05T10:33:54.587Z,70.20
2023-01-05T10:37:09.040Z,70.89
2023-01-05T10:39:46.845Z,71.93
2023-01-05T10:42:24.302Z,72.13
2023-01-05T10:45:03.491Z,71.52
2023-01-05T10:47:37.324Z,71.27
2023-01-05T10:50:25.477Z,70.00
2023-01-05T10:52:53.723Z,69.75
2023-01-05T10:55:21.051Z,69.50
2023-01-05T10:57:48.416Z,70.68
2023-01-05T11:00:19.550Z,70.19
2023-01-05T11:02:57.987Z,69.57
2023-01-05T11:05:36.684Z,68.76
2023-01-05T11:08:06.685Z,70.00
2023-01-05T11:10:40.455Z,67.21
2023-01-05T11:13:19.051Z,67.08
2023-01-05T11:16:08.417Z,66.50
2023-01-05T11:18:39.988Z,67.47
2023-01-05T11:21:34.543Z,68.34
2023-01-05T11:24:02.931Z,67.97
2023-01-05T11:26:34.959Z,67.39
2023-01-05T11:29:09.702Z,66.65
2023-01-05T11:31:43.286Z,67.05
2023-01-05T11:34:33.072Z,68.17
2023-01-05T11:37:08.500Z,68.39
2023-01-05T11:39:49.264Z,67.55
2023-01-05T11:42:26.114Z,66.79
2023-01-05T11:44:59.138Z,66.70
2023-01-05T11:47:43.867Z,66.82
2023-01-05T11:50:14.201Z,67.10
2023-01-05T11:53:20.728Z,66.58
2023-01-05T11:55:59.409Z,66.93
2023-01-05T11:58:29.032Z,66.49
2023-01-05T12:01:14.824Z,66.22
2023-01-05T12:03:58.711Z,66.12
2023-01-05T12:06:35.008Z,64.91
2023-01-05T12:09:14.986Z,65.56
2023-01-05T12:12:23.717Z,65.21
2023-01-05T12:15:21.945Z,65.32
2023-01-05T12:18:19.159Z,66.11
2023-01-05T12:20:57.704Z,65.88
2023-01-05T12:23:55.496Z,66.23
2023-01-05T12:26:29.006Z,66.09
2023-01-05T12:34:01.371Z,65.70
2023-01-05T12:35:56.168Z,65.62
2023-01-05T12:38:41.083Z,65.15
2023-01-05T12:41:45.488Z,66.56
2023-01-05T12:44:37.354Z,64.47
2023-01-05T12:47:37.036Z,65.69
2023-01-05T12:50:25.687Z,65.18
2023-01-05T12:52:58.546Z,64.92
2023-01-05T12:55:29.417Z,65.48
2023-01-05T12:58:03.285Z,64.45
2023-01-05T13:00:34.420Z,65.39
2023-01-05T13:03:34.219Z,66.22
2023-01-05T13:06:02.925Z,65.42
2023-01-05T13:08:36.449Z,65.36
2023-01-05T13:11:15.170Z,66.17
2023-01-05T13:13:46.757Z,65.18
2023-01-05T13:16:26.308Z,63.03
2023-01-05T13:19:05.386Z,65.22
2023-01-05T13:21:32.509Z,64.98
2023-01-05T13:24:03.520Z,66.08
2023-01-05T13:26:37.464Z,65.45
2023-01-05T13:29:05.058Z,65.64
2023-01-05T13:31:50.058Z,63.69
2023-01-05T13:34:32.997Z,64.55
2023-01-05T13:37:39.463Z,66.66
2023-01-05T13:40:14.563Z,65.54
2023-01-05T13:42:59.078Z,65.61
2023-01-05T13:46:02.674Z,66.34
2023-01-05T13:49:05.082Z,66.28
2023-01-05T13:52:05.551Z,66.16
2023-01-05T13:55:00.027Z,64.97
2023-01-05T13:57:39.419Z,65.49
2023-01-05T14:00:27.022Z,66.99
2023-01-05T14:03:07.874Z,66.87
2023-01-05T14:05:58.606Z,68.02
2023-01-05T14:08:32.619Z,66.12
2023-01-05T14:11:15.949Z,67.02
2023-01-05T14:13:49.844Z,67.50
2023-01-05T14:16:52.776Z,66.62
2023-01-05T14:19:25.359Z,67.17
2023-01-05T14:21:54.132Z,67.02
2023-01-05T14:24:42.475Z,66.33
2023-01-05T14:27:13.416Z,67.00
2023-01-05T14:29:49.143Z,66.29
2023-01-05T14:32:33.509Z,67.02
2023-01-05T14:35:05.526Z,66.81
2023-01-05T14:37:42.229Z,66.63
2023-01-05T14:40:36.412Z,66.08
2023-01-05T14:43:08.146Z,66.98
2023-01-05T14:45:38.026Z,66.78
2023-01-05T14:48:09.029Z,65.62
2023-01-05T14:50:40.860Z,65.89
2023-01-05T14:53:54.037Z,66.31
2023-01-05T14:56:37.161Z,66.84
2023-01-05T14:59:24.349Z,66.79
2023-01-05T15:02:00.978Z,67.49
2023-01-05T15:04:36.461Z,66.98
2023-01-05T15:07:21.420Z,67.26
2023-01-05T15:10:13.265Z,67.65
2023-01-05T15:12:58.939Z,67.62
2023-01-05T15:15:40.917Z,67.54
2023-01-05T15:18:22.728Z,67.31
2023-01-05T15:21:06.993Z,67.24
2023-01-05T15:23:54.934Z,67.39
2023-01-05T15:26:28.065Z,67.99
2023-01-05T15:29:31.308Z,68.43
2023-01-05T15:32:02.528Z,68.73
2023-01-05T15:34:47.621Z,68.12
2023-01-05T15:37:20.011Z,68.59
2023-01-05T15:39:51.919Z,67.86
2023-01-05T15:42:24.365Z,67.61
2023-01-05T15:44:52.894Z,67.47
2023-01-05T15:47:20.904Z,67.71
2023-01-05T15:49:48.197Z,69.02
2023-01-05T15:52:21.538Z,68.20
2023-01-05T15:54:57.946Z,67.73
2023-01-05T15:57:24.754Z,68.17
2023-01-05T15:59:52.288Z,68.83
2023-01-05T16:02:25.960Z,68.84
2023-01-05T16:05:19.957Z,68.87
2023-01-05T16:07:48.372Z,69.42
2023-01-05T16:10:26.349Z,69.53
2023-01-05T16:12:57.358Z,68.83
2023-01-05T16:15:25.301Z,69.07
2023-01-05T16:17:55.007Z,68.44
2023-01-05T16:20:24.601Z,68.84
2023-01-05T16:23:14.225Z,69.22
2023-01-05T16:25:48.396Z,68.92
2023-01-05T16:28:19.593Z,69.78
2023-01-05T16:30:49.202Z,70.10
2023-01-05T16:33:35.950Z,70.32
2023-01-05T16:36:18.734Z,69.93
2023-01-05T16:38:46.037Z,69.67
2023-01-05T16:41:13.983Z,69.61
2023-01-05T16:43:46.938Z,69.32
2023-01-05T16:46:19.816Z,68.88
2023-01-05T16:49:19.861Z,70.11
2023-01-05T16:51:47.799Z,70.16
2023-01-05T16:54:14.694Z,69.54
2023-01-05T16:56:58.160Z,69.83
2023-01-05T16:59:43.964Z,69.74
2023-01-05T17:02:42.964Z,69.09
2023-01-05T17:05:10.882Z,69.72
2023-01-05T17:07:39.370Z,69.98
2023-01-05T17:10:18.465Z,69.40
2023-01-05T17:12:50.787Z,69.06
2023-01-05T17:15:19.730Z,69.50
2023-01-05T17:17:46.653Z,69.07
2023-01-05T17:20:13.707Z,70.39
2023-01-05T17:22:40.536Z,69.89
2023-01-05T17:25:12.102Z,69.83
2023-01-05T17:27:38.859Z,69.75
2023-01-05T17:30:13.637Z,69.63
2023-01-05T17:32:40.397Z,70.13
2023-01-05T17:35:07.406Z,69.41
2023-01-05T17:37:34.129Z,68.90
2023-01-05T17:40:01.203Z,69.29
2023-01-05T17:42:43.081Z,69.15
2023-01-05T17:45:20.473Z,69.26
2023-01-05T17:47:47.532Z,68.90
2023-01-05T17:50:17.807Z,67.60
2023-01-05T17:52:44.986Z,69.21
2023-01-05T17:55:12.558Z,69.20
2023-01-05T17:57:39.979Z,69.17
2023-01-05T18:00:11.283Z,69.35
2023-01-05T18:02:38.614Z,69.93
2023-01-05T18:05:06.796Z,69.23
2023-01-05T18:07:33.904Z,69.74
2023-01-05T18:10:01.128Z,69.86
2023-01-05T18:12:28.337Z,69.27
2023-01-05T18:14:55.492Z,69.44
2023-01-05T18:17:22.745Z,69.12
2023-01-05T18:19:49.514Z,68.20
2023-01-05T18:22:16.474Z,69.63
2023-01-05T18:24:43.248Z,69.82
2023-01-05T18:27:10.614Z,69.54
2023-01-05T18:29:38.548Z,69.94
2023-01-05T18:32:06.253Z,70.14
2023-01-05T18:34:33.480Z,69.87
2023-01-05T18:37:06.043Z,69.90
2023-01-05T18:39:39.335Z,69.78
2023-01-05T18:42:06.174Z,69.73
2023-01-05T18:44:33.007Z,69.18
2023-01-05T18:46:59.859Z,70.01
2023-01-05T18:49:26.945Z,69.82
2023-01-05T18:51:53.754Z,69.94
2023-01-05T18:54:20.949Z,70.10
2023-01-05T18:56:47.609Z,69.71
2023-01-05T18:59:14.490Z,69.80
2023-01-05T19:01:43.265Z,69.26
2023-01-05T19:04:12.433Z,70.20
2023-01-05T19:06:39.729Z,70.17
2023-01-05T19:09:09.136Z,70.58
2023-01-05T19:11:36.811Z,71.02
2023-01-05T19:14:05.251Z,70.24
2023-01-05T19:16:34.065Z,70.21
2023-01-05T19:19:05.214Z,69.84
2023-01-05T19:21:33.759Z,69.61
2023-01-05T19:24:01.800Z,69.99
2023-01-05T19:26:31.636Z,69.99
2023-01-05T19:28:59.834Z,70.09
2023-01-05T19:31:28.201Z,70.25
2023-01-05T19:33:59.050Z,69.90
2023-01-05T19:36:32.572Z,69.78
2023-01-05T19:39:01.103Z,69.41
2023-01-05T19:41:29.005Z,69.26
2023-01-05T19:43:56.533Z,69.00
2023-01-05T19:46:25.313Z,68.73
2023-01-05T19:48:52.322Z,68.56
2023-01-05T19:51:23.454Z,68.80
2023-01-05T19:53:58.837Z,68.79
2023-01-05T19:56:28.243Z,68.82
2023-01-05T19:58:57.640Z,68.87
2023-01-05T20:01:25.505Z,69.22
2023-01-05T20:03:52.617Z,69.43
2023-01-05T20:06:22.189Z,69.38
2023-01-05T20:08:52.788Z,69.80
2023-01-05T20:11:35.948Z,70.09
2023-01-05T20:14:09.190Z,69.88
2023-01-05T20:16:36.762Z,69.91
2023-01-05T20:19:03.903Z,69.99
2023-01-05T20:21:32.565Z,70.13
2023-01-05T20:24:03.508Z,69.82
2023-01-05T20:26:31.372Z,69.89
2023-01-05T20:29:01.733Z,70.04
2023-01-05T20:31:54.673Z,69.60
2023-01-05T20:34:23.311Z,69.46
2023-01-05T20:36:50.209Z,69.41
2023-01-05T20:39:18.894Z,69.64
2023-01-05T20:41:47.761Z,69.67
2023-01-05T20:44:15.583Z,69.76
2023-01-05T20:46:46.500Z,69.29
2023-01-05T20:49:13.911Z,69.54
2023-01-05T20:51:41.044Z,69.50
2023-01-05T20:54:11.207Z,69.66
2023-01-05T20:56:39.842Z,69.34
2023-01-05T20:59:09.142Z,69.44
2023-01-05T21:01:36.292Z,69.08
2023-01-05T21:04:04.453Z,68.59
2023-01-05T21:06:31.534Z,68.41
2023-01-05T21:08:58.566Z,68.38
2023-01-05T21:11:26.230Z,68.42
2023-01-05T21:13:57.264Z,68.35
2023-01-05T21:16:25.724Z,68.06
2023-01-05T21:18:52.963Z,67.95
2023-01-05T21:21:21.294Z,68.37
2023-01-05T21:23:49.547Z,68.11
2023-01-05T21:26:17.041Z,68.13
2023-01-05T21:28:45.287Z,68.50
2023-01-05T21:31:14.317Z,68.32
2023-01-05T21:33:41.747Z,68.54
2023-01-05T21:36:13.440Z,69.10
2023-01-05T21:39:00.362Z,68.92
2023-01-05T21:41:46.344Z,69.11
2023-01-05T21:44:14.622Z,69.31
2023-01-05T21:46:42.459Z,69.68
2023-01-05T21:49:10.086Z,69.62
2023-01-05T21:51:55.848Z,69.90
2023-01-05T21:54:41.669Z,70.84
2023-01-05T21:57:08.810Z,70.86
2023-01-05T21:59:35.717Z,70.88
2023-01-05T22:02:02.604Z,70.97
2023-01-05T22:04:29.555Z,70.89
2023-01-05T22:06:56.191Z,70.47
2023-01-05T22:09:23.015Z,70.22
2023-01-05T22:11:50.045Z,70.47
2023-01-05T22:14:16.792Z,70.39
2023-01-05T22:16:43.638Z,70.17
2023-01-05T22:19:11.235Z,69.98
2023-01-05T22:21:38.195Z,69.94
2023-01-05T22:24:05.748Z,69.97
2023-01-05T22:26:32.670Z,70.00
2023-01-05T22:28:59.441Z,70.33
2023-01-05T22:31:28.662Z,70.39
2023-01-05T22:33:57.942Z,70.53
2023-01-05T22:36:25.847Z,70.65
2023-01-05T22:38:53.548Z,70.61
2023-01-05T22:41:25.356Z,70.85
2023-01-05T22:43:52.108Z,70.69
2023-01-05T22:46:20.835Z,70.84
2023-01-05T22:48:49.398Z,70.72
2023-01-05T22:51:24.800Z,70.84
2023-01-05T22:53:52.017Z,71.21
2023-01-05T22:56:21.254Z,71.17
2023-01-05T22:58:48.279Z,70.97
2023-01-05T23:01:19.934Z,70.93
2023-01-05T23:03:46.994Z,71.04
2023-01-05T23:06:14.111Z,70.82
2023-01-05T23:08:42.058Z,70.95
2023-01-05T23:11:14.432Z,71.13
2023-01-05T23:13:42.217Z,71.17
2023-01-05T23:16:09.574Z,71.19
2023-01-05T23:18:37.440Z,71.34
2023-01-05T23:21:07.533Z,71.53
2023-01-05T23:23:34.764Z,71.71
2023-01-05T23:26:01.785Z,72.19
2023-01-05T23:28:29.343Z,72.15
2023-01-05T23:30:57.530Z,72.49
2023-01-05T23:33:26.572Z,72.78
2023-01-05T23:35:54.333Z,72.92
2023-01-05T23:38:22.438Z,73.03
2023-01-05T23:40:51.143Z,73.06
2023-01-05T23:43:20.615Z,73.46
2023-01-05T23:45:47.633Z,73.55
2023-01-05T23:48:14.886Z,73.51
2023-01-05T23:50:46.549Z,73.37
2023-01-05T23:53:13.455Z,73.65
2023-01-05T23:55:40.962Z,73.74
2023-01-05T23:58:08.296Z,73.38
